Time;durP1;ratioP1;P1;durP2;ratioP2;P2;SDS_P1;SDS_P2;PMS_P1;PMS_P2;Temp;Humidity;BMP_temperature;BMP_pressure;BME280_temperature;BME280_humidity;BME280_pressure;Samples;Min_cycle;Max_cycle;Signal;HPM_P1;HPM_P2
2022/12/26 00:00:41;;;;;;;5.68;3.92;;;;;;;9.83;69.94;96678.19;4909421;29;20055;-82
2022/12/26 00:03:09;;;;;;;5.22;3.97;;;;;;;9.86;69.35;96680.47;4910008;29;20052;-80
2022/12/26 00:05:38;;;;;;;4.88;3.80;;;;;;;9.86;69.05;96690.91;4909007;29;20098;-87
2022/12/26 00:08:06;;;;;;;6.03;4.10;;;;;;;9.85;69.07;96672.81;4908470;29;20100;-85
2022/12/26 00:10:34;;;;;;;4.45;3.85;;;;;;;9.88;69.29;96678.50;4908442;29;20500;-85
2022/12/26 00:13:02;;;;;;;5.63;4.07;;;;;;;9.93;69.15;96685.78;4908213;29;20052;-82
2022/12/26 00:15:49;;;;;;;7.15;3.95;;;;;;;9.98;69.17;96690.47;4907300;29;20052;-81
2022/12/26 00:18:17;;;;;;;8.25;5.00;;;;;;;10.02;70.42;96699.56;4906396;29;20590;-81
2022/12/26 00:20:46;;;;;;;7.88;4.70;;;;;;;10.05;69.22;96709.63;4907301;29;20051;-83
2022/12/26 00:23:13;;;;;;;9.35;5.60;;;;;;;10.07;69.56;96697.25;4906433;29;20064;-81
2022/12/26 00:25:41;;;;;;;6.03;4.18;;;;;;;10.09;68.97;96700.47;4905796;29;20060;-78
2022/12/26 00:28:08;;;;;;;4.03;3.53;;;;;;;10.10;68.80;96708.13;4904822;29;20416;-81
2022/12/26 00:30:37;;;;;;;4.40;3.38;;;;;;;10.11;68.49;96701.13;4905327;29;20056;-82
2022/12/26 00:43:54;;;;;;;3.70;3.30;;;;;;;10.19;68.17;96708.03;5538582;23;20051;-79
2022/12/26 00:46:22;;;;;;;3.42;2.80;;;;;;;10.19;68.04;96697.63;4950344;29;20309;-78
2022/12/26 00:48:50;;;;;;;4.35;3.38;;;;;;;10.20;68.06;96697.44;4954618;29;20048;-79
2022/12/26 00:51:18;;;;;;;5.15;3.17;;;;;;;10.21;67.70;96696.47;4951547;29;20087;-79
2022/12/26 00:53:46;;;;;;;3.92;3.10;;;;;;;10.24;68.84;96697.91;4928034;29;20045;-79
2022/12/26 00:56:14;;;;;;;4.55;3.42;;;;;;;10.27;68.59;96707.97;4916410;29;20491;-79
2022/12/26 00:58:42;;;;;;;5.88;4.25;;;;;;;10.29;67.95;96706.84;4915690;29;20052;-79
2022/12/26 01:01:15;;;;;;;4.35;3.15;;;;;;;10.28;68.12;96710.41;4916459;29;20052;-79
2022/12/26 01:03:44;;;;;;;4.22;3.47;;;;;;;10.29;68.37;96706.84;4916552;29;20052;-78
2022/12/26 01:06:13;;;;;;;5.28;3.35;;;;;;;10.29;68.06;96706.03;4916772;29;20052;-79
2022/12/26 01:08:40;;;;;;;5.80;3.00;;;;;;;10.30;67.75;96707.66;4916326;29;20062;-79
2022/12/26 01:11:11;;;;;;;3.45;2.70;;;;;;;10.31;69.20;96704.88;4916248;29;20056;-79
2022/12/26 01:13:39;;;;;;;3.70;2.80;;;;;;;10.35;68.08;96709.75;4916511;29;20058;-79
2022/12/26 01:16:07;;;;;;;3.20;2.90;;;;;;;10.35;67.81;96710.53;4916951;29;20139;-79
2022/12/26 01:18:37;;;;;;;3.30;2.90;;;;;;;10.36;68.06;96708.75;4919779;29;20055;-79
2022/12/26 01:21:07;;;;;;;3.38;2.72;;;;;;;10.37;67.86;96697.34;4919957;29;20100;-79
2022/12/26 01:23:34;;;;;;;4.35;2.50;;;;;;;10.38;67.66;96698.94;4920522;29;20058;-79
2022/12/26 01:26:04;;;;;;;3.35;2.92;;;;;;;10.38;67.68;96696.34;4919781;29;20586;-79
2022/12/26 01:28:46;;;;;;;3.72;2.85;;;;;;;10.38;67.75;96696.34;4919854;29;20052;-78
2022/12/26 01:31:13;;;;;;;3.53;2.42;;;;;;;10.39;67.62;96700.59;4919794;29;20091;-79
2022/12/26 01:33:42;;;;;;;3.03;2.70;;;;;;;10.40;67.76;96712.63;4920277;29;20486;-78
2022/12/26 01:36:10;;;;;;;2.60;2.38;;;;;;;10.40;67.61;96705.59;4920644;29;20134;-79
2022/12/26 01:38:38;;;;;;;2.72;2.35;;;;;;;10.40;67.49;96692.56;4920923;29;20048;-78
2022/12/26 01:41:18;;;;;;;2.97;2.67;;;;;;;10.40;67.52;96696.97;4921055;29;20059;-78
2022/12/26 01:43:48;;;;;;;2.28;2.08;;;;;;;10.40;67.45;96686.53;4919806;29;20052;-79
2022/12/26 01:46:17;;;;;;;3.40;2.38;;;;;;;10.39;67.42;96703.19;4919627;29;20052;-79
2022/12/26 01:48:47;;;;;;;2.22;2.03;;;;;;;10.39;67.45;96708.41;4920234;29;20059;-79
2022/12/26 01:51:16;;;;;;;4.15;2.92;;;;;;;10.40;67.54;96712.63;4920027;29;20048;-79
2022/12/26 01:53:47;;;;;;;2.30;2.10;;;;;;;10.41;67.53;96714.25;4924515;29;20052;-79
2022/12/26 01:56:19;;;;;;;2.72;2.30;;;;;;;10.42;69.00;96711.44;4939928;29;20052;-79
2022/12/26 01:58:50;;;;;;;2.20;2.00;;;;;;;10.45;68.45;96705.06;4939260;29;20051;-78
2022/12/26 02:01:19;;;;;;;4.53;1.98;;;;;;;10.46;67.90;96696.25;4926318;29;20056;-78
2022/12/26 02:06:34;;;;;;;2.80;1.98;;;;;;;10.48;67.96;96702.91;4919253;29;20044;-79
2022/12/26 02:09:02;;;;;;;2.38;2.22;;;;;;;10.50;67.52;96702.75;4918722;29;20059;-79
2022/12/26 02:11:34;;;;;;;4.78;2.33;;;;;;;10.51;67.52;96707.75;4919891;29;20348;-79
2022/12/26 02:14:05;;;;;;;2.20;1.80;;;;;;;10.53;67.49;96718.03;4919221;29;20076;-79
2022/12/26 02:16:34;;;;;;;3.67;1.40;;;;;;;10.57;67.38;96715.88;4919796;29;20048;-79
2022/12/26 02:19:06;;;;;;;2.67;2.00;;;;;;;10.58;67.23;96715.69;4919300;29;20108;-78
2022/12/26 02:22:01;;;;;;;3.40;2.17;;;;;;;10.61;67.86;96704.91;4919157;29;20063;-79
2022/12/26 02:25:08;;;;;;;2.55;2.10;;;;;;;10.64;67.16;96714.97;4919671;29;20056;-79
2022/12/26 02:27:56;;;;;;;4.35;2.38;;;;;;;10.64;66.75;96714.16;4918701;29;20048;-79
2022/12/26 02:30:41;;;;;;;2.10;1.80;;;;;;;10.64;66.82;96709.75;4918863;29;20503;-79
2022/12/26 02:33:28;;;;;;;2.38;2.03;;;;;;;10.64;66.70;96714.16;4918705;29;20136;-79
2022/12/26 02:36:19;;;;;;;4.22;2.40;;;;;;;10.62;66.90;96722.16;4919098;29;20056;-79
2022/12/26 02:39:00;;;;;;;2.30;1.80;;;;;;;10.63;66.74;96710.75;4918546;29;20059;-78
2022/12/26 02:41:40;;;;;;;3.25;1.95;;;;;;;10.63;66.72;96696.91;4918605;29;20088;-79
2022/12/26 02:47:11;;;;;;;2.88;2.22;;;;;;;10.62;66.67;96690.88;4918511;29;20167;-79
2022/12/26 03:13:12;;;;;;;2.17;1.60;;;;;;;10.69;66.67;96712.66;4919426;29;20052;-79
2022/12/26 03:18:35;;;;;;;2.70;2.27;;;;;;;10.75;66.80;96713.72;4918724;29;20055;-79
2022/12/26 03:21:29;;;;;;;2.38;2.05;;;;;;;10.79;68.30;96714.19;4918012;29;20100;-79
2022/12/26 03:23:57;;;;;;;3.60;2.38;;;;;;;10.81;67.43;96714.81;4918078;29;20048;-79
2022/12/26 03:26:39;;;;;;;2.92;2.30;;;;;;;10.83;66.77;96718.06;4917948;29;20052;-79
2022/12/26 03:31:59;;;;;;;3.22;2.30;;;;;;;10.89;66.53;96719.94;4918061;29;20048;-79
2022/12/26 03:34:27;;;;;;;3.00;2.10;;;;;;;10.91;66.55;96717.94;4919159;29;20056;-79
2022/12/26 03:37:31;;;;;;;2.45;2.20;;;;;;;10.95;66.19;96718.41;4918541;29;20055;-79
2022/12/26 04:20:57;;;;;;;1.80;1.60;;;;;;;11.22;66.13;96706.50;4917389;29;20052;-79
2022/12/26 04:46:19;;;;;;;2.63;1.90;;;;;;;11.41;65.44;96729.41;4918796;29;20052;-79
2022/12/26 04:51:33;;;;;;;3.67;2.50;;;;;;;11.41;66.17;96737.25;4920316;29;20127;-78
2022/12/26 04:54:01;;;;;;;2.35;1.98;;;;;;;11.38;65.40;96735.00;4920714;29;20131;-79
2022/12/26 04:56:29;;;;;;;8.50;2.05;;;;;;;11.37;65.21;96732.56;4920950;29;20059;-79
2022/12/26 04:58:58;;;;;;;2.35;1.88;;;;;;;11.34;65.07;96741.59;4920582;29;20055;-78
2022/12/26 05:10:01;;;;;;;3.97;2.58;;;;;;;11.33;65.81;96726.91;4916173;29;20519;-79
2022/12/26 05:12:29;;;;;;;5.20;3.85;;;;;;;11.32;65.78;96733.13;4920399;29;20059;-79
2022/12/26 05:14:58;;;;;;;13.90;7.45;;;;;;;11.30;65.35;96724.66;4920234;29;20052;-79
2022/12/26 05:28:54;;;;;;;2.40;2.20;;;;;;;11.24;65.17;96738.44;4919245;29;20503;-79
2022/12/26 05:31:23;;;;;;;1.90;1.75;;;;;;;11.22;65.24;96733.41;4919854;29;20064;-79
2022/12/26 05:34:05;;;;;;;2.05;1.83;;;;;;;11.21;65.22;96725.75;4920050;29;20052;-79
2022/12/26 05:36:37;;;;;;;3.53;2.65;;;;;;;11.19;65.10;96727.75;4919636;29;20421;-79
2022/12/26 05:39:05;;;;;;;3.80;1.98;;;;;;;11.20;65.54;96742.44;4919508;29;20055;-79
2022/12/26 05:41:32;;;;;;;2.00;1.85;;;;;;;11.20;65.51;96734.59;4919633;29;20058;-79
2022/12/26 05:44:00;;;;;;;2.95;2.22;;;;;;;11.21;65.36;96730.97;4919654;29;20079;-79
2022/12/26 05:46:29;;;;;;;2.85;1.75;;;;;;;11.22;65.26;96730.81;4919853;29;20056;-79
2022/12/26 05:48:57;;;;;;;3.90;2.00;;;;;;;11.23;65.34;96726.38;4919200;29;20048;-79
2022/12/26 05:51:25;;;;;;;3.13;1.80;;;;;;;11.24;65.05;96725.38;4919512;29;20056;-79
2022/12/26 05:53:52;;;;;;;2.92;1.92;;;;;;;11.25;65.19;96713.97;4919469;29;20052;-79
2022/12/26 05:56:21;;;;;;;2.15;1.60;;;;;;;11.26;65.68;96729.47;4933142;29;20059;-79
2022/12/26 05:58:54;;;;;;;1.88;1.70;;;;;;;11.28;65.19;96718.81;4939110;29;20056;-78
2022/12/26 06:01:22;;;;;;;2.35;2.05;;;;;;;11.31;66.06;96723.69;4938596;29;20108;-78
2022/12/26 06:03:53;;;;;;;3.13;2.25;;;;;;;11.32;65.35;96709.63;4919422;29;20067;-79
2022/12/26 06:06:23;;;;;;;2.38;2.10;;;;;;;11.33;65.82;96719.09;4919882;29;20099;-79
2022/12/26 06:08:52;;;;;;;3.45;2.05;;;;;;;11.35;65.52;96727.56;4918921;29;20059;-79
2022/12/26 06:11:21;;;;;;;1.60;1.50;;;;;;;11.37;65.75;96715.13;4919984;29;20084;-79
2022/12/26 06:13:49;;;;;;;3.63;1.80;;;;;;;11.38;66.42;96706.28;4919476;29;20052;-79
2022/12/26 06:16:17;;;;;;;4.35;2.10;;;;;;;11.42;67.13;96696.28;4919683;29;20056;-79
2022/12/26 06:18:47;;;;;;;2.92;2.50;;;;;;;11.41;65.70;96690.22;4919306;29;20052;-78
2022/12/26 06:21:17;;;;;;;3.40;2.42;;;;;;;11.41;66.74;96695.44;4920612;29;20064;-79
2022/12/26 06:23:45;;;;;;;2.33;2.10;;;;;;;11.44;66.85;96707.34;4921071;29;20052;-79
2022/12/26 06:26:13;;;;;;;4.05;2.97;;;;;;;11.44;65.83;96702.94;4920121;29;20056;-79
2022/12/26 06:28:41;;;;;;;3.30;2.90;;;;;;;11.44;65.53;96713.38;4919068;29;20044;-79
2022/12/26 06:31:11;;;;;;;3.55;2.90;;;;;;;11.42;65.44;96717.97;4919208;29;20056;-80
2022/12/26 06:33:39;;;;;;;2.75;2.53;;;;;;;11.41;66.10;96718.97;4919310;29;20052;-79
2022/12/26 06:36:09;;;;;;;3.08;2.40;;;;;;;11.43;66.21;96724.00;4918971;29;20059;-79
2022/12/26 06:38:39;;;;;;;2.88;2.15;;;;;;;11.42;66.96;96723.19;4918559;29;20138;-79
2022/12/26 06:41:07;;;;;;;2.45;2.25;;;;;;;11.44;66.08;96721.22;4919079;29;20116;-79
2022/12/26 06:54:16;;;;;;;6.82;3.90;;;;;;;11.48;65.73;96727.69;5571456;23;20036;-78
2022/12/26 06:56:44;;;;;;;4.13;2.78;;;;;;;11.48;65.70;96727.69;4977197;29;20107;-78
2022/12/26 06:59:12;;;;;;;4.00;2.78;;;;;;;11.48;65.92;96727.69;4975355;29;20051;-78
2022/12/26 07:01:39;;;;;;;2.50;2.25;;;;;;;11.50;66.54;96730.09;4963673;29;20058;-78
2022/12/26 07:04:07;;;;;;;2.40;1.63;;;;;;;11.49;65.38;96728.50;4951404;29;20055;-78
2022/12/26 07:06:36;;;;;;;1.70;1.60;;;;;;;11.49;65.23;96737.13;4945337;29;20059;-78
2022/12/26 07:09:06;;;;;;;4.15;1.90;;;;;;;11.48;64.82;96745.97;4940923;29;20075;-78
2022/12/26 07:11:38;;;;;;;6.60;1.92;;;;;;;11.48;64.52;96743.38;4940641;29;20059;-78
2022/12/26 07:14:06;;;;;;;3.30;1.90;;;;;;;11.48;65.31;96732.91;4937869;29;20055;-78
2022/12/26 07:16:34;;;;;;;2.92;2.03;;;;;;;11.48;64.96;96730.31;4938237;29;20048;-78
2022/12/26 07:19:03;;;;;;;2.30;2.10;;;;;;;11.46;64.86;96727.06;4937767;29;20083;-78
2022/12/26 07:21:30;;;;;;;4.07;2.25;;;;;;;11.47;65.94;96736.50;4937615;29;20051;-78
2022/12/26 07:24:07;;;;;;;1.70;1.60;;;;;;;11.50;66.82;96743.16;4937312;29;20059;-78
2022/12/26 07:26:36;;;;;;;2.30;1.77;;;;;;;11.50;66.85;96740.56;4937546;29;20047;-78
2022/12/26 07:29:04;;;;;;;1.88;1.65;;;;;;;11.50;66.79;96723.09;4936950;29;20043;-78
2022/12/26 07:31:31;;;;;;;3.05;2.08;;;;;;;11.51;65.62;96729.94;4937152;29;20047;-78
2022/12/26 07:33:59;;;;;;;3.05;2.30;;;;;;;11.52;65.50;96733.34;4937273;29;20058;-78
2022/12/26 07:36:26;;;;;;;5.43;3.55;;;;;;;11.52;65.23;96728.13;4937276;29;20055;-78
2022/12/26 07:38:54;;;;;;;7.85;5.28;;;;;;;11.53;66.65;96740.19;4936741;29;20055;-78
2022/12/26 07:44:10;;;;;;;2.70;2.15;;;;;;;11.52;64.49;96749.84;4937329;29;20062;-78
2022/12/26 07:46:38;;;;;;;3.60;2.35;;;;;;;11.51;65.00;96745.59;4937203;29;20062;-78
2022/12/26 07:49:06;;;;;;;2.08;1.73;;;;;;;11.52;64.77;96744.63;4936782;29;20422;-78
2022/12/26 07:51:33;;;;;;;7.95;2.42;;;;;;;11.54;65.30;96750.47;4937330;29;20454;-77
2022/12/26 07:54:01;;;;;;;4.65;2.58;;;;;;;11.53;64.78;96746.22;4936599;29;20051;-78
2022/12/26 07:56:37;;;;;;;8.80;5.13;;;;;;;11.54;65.23;96747.03;4937672;29;20060;-78
2022/12/26 07:59:04;;;;;;;6.80;3.65;;;;;;;11.55;66.39;96764.34;4937032;29;20052;-78
2022/12/26 08:01:33;;;;;;;3.30;2.30;;;;;;;11.57;67.31;96751.06;4937026;29;20048;-78
2022/12/26 08:04:01;;;;;;;2.75;2.30;;;;;;;11.54;66.77;96753.09;4936697;29;20052;-78
2022/12/26 08:06:28;;;;;;;3.60;2.00;;;;;;;11.50;66.76;96751.84;4944853;29;20055;-78
2022/12/26 08:08:56;;;;;;;3.78;2.00;;;;;;;11.48;66.77;96739.97;4954675;29;20115;-78
2022/12/26 08:11:24;;;;;;;3.55;2.45;;;;;;;11.46;67.12;96734.91;4955941;29;20071;-77
2022/12/26 08:13:52;;;;;;;2.67;2.38;;;;;;;11.44;66.92;96739.50;4937623;29;20055;-78
2022/12/26 08:16:20;;;;;;;4.95;2.50;;;;;;;11.41;66.82;96742.47;4937594;29;20056;-78
2022/12/26 08:18:49;;;;;;;2.78;2.17;;;;;;;11.39;66.94;96739.25;4936543;29;20103;-78
2022/12/26 08:21:17;;;;;;;2.50;2.30;;;;;;;11.37;67.92;96751.69;4937168;29;20436;-78
2022/12/26 08:23:46;;;;;;;2.67;2.47;;;;;;;11.33;67.93;96759.06;4936632;29;20521;-78
2022/12/26 08:26:19;;;;;;;4.20;3.30;;;;;;;11.31;67.51;96750.59;4936043;29;20052;-78
2022/12/26 08:28:47;;;;;;;;;;;;;;;11.31;67.62;96757.63;4936572;29;20114;-78
2022/12/26 08:31:14;;;;;;;5.57;4.28;;;;;;;11.28;67.78;96757.97;4936177;29;19923;-78
2022/12/26 08:33:42;;;;;;;4.25;3.38;;;;;;;11.25;69.11;96755.75;4953929;29;20055;-78
2022/12/26 08:36:15;;;;;;;5.22;3.10;;;;;;;11.23;68.17;96762.94;4954186;29;20056;-78
2022/12/26 08:38:43;;;;;;;3.30;2.90;;;;;;;11.20;68.69;96760.72;4944750;29;20051;-78
2022/12/26 08:41:11;;;;;;;3.40;3.10;;;;;;;11.18;68.68;96762.69;4936269;29;20395;-78
2022/12/26 08:43:38;;;;;;;3.42;3.13;;;;;;;11.17;69.69;96771.50;4936177;29;20075;-78
2022/12/26 08:46:26;;;;;;;6.28;4.20;;;;;;;11.18;69.16;96767.91;4936241;29;20063;-78
2022/12/26 08:48:53;;;;;;;4.28;3.63;;;;;;;11.16;69.32;96769.88;4935703;29;20442;-78
2022/12/26 08:51:24;;;;;;;4.78;3.20;;;;;;;11.14;70.31;96778.69;4936112;29;20058;-78
2022/12/26 08:53:54;;;;;;;4.43;3.17;;;;;;;11.14;69.51;96778.69;4935737;29;20060;-78
2022/12/26 08:56:24;;;;;;;5.38;3.28;;;;;;;11.12;70.39;96780.69;4935991;29;20052;-78
2022/12/26 08:58:52;;;;;;;4.88;3.33;;;;;;;11.13;70.40;96781.50;4935848;29;20056;-78
2022/12/26 09:01:21;;;;;;;4.45;3.75;;;;;;;11.14;70.58;96783.13;4935829;29;20051;-78
2022/12/26 09:03:52;;;;;;;4.97;3.33;;;;;;;11.13;70.26;96771.88;4936378;29;20056;-78
2022/12/26 09:06:21;;;;;;;7.05;5.28;;;;;;;11.10;70.44;96766.19;4936157;29;20087;-78
2022/12/26 09:08:50;;;;;;;6.00;5.03;;;;;;;11.08;71.06;96778.59;4935525;29;20147;-77
2022/12/26 09:11:20;;;;;;;7.97;5.43;;;;;;;11.05;71.05;96779.78;4936241;29;20134;-78
2022/12/26 09:13:48;;;;;;;6.95;4.28;;;;;;;11.05;72.06;96784.22;4935625;29;20052;-78
2022/12/26 09:16:18;;;;;;;6.82;4.43;;;;;;;11.05;72.06;96794.66;4936248;29;20066;-78
2022/12/26 09:18:46;;;;;;;5.50;4.18;;;;;;;11.04;72.58;96806.91;4935746;29;20178;-78
2022/12/26 09:21:15;;;;;;;8.27;4.13;;;;;;;11.04;72.25;96798.22;4936150;29;20059;-78
2022/12/26 09:23:44;;;;;;;4.45;3.92;;;;;;;11.03;72.31;96802.66;4935261;29;20513;-77
2022/12/26 09:26:14;;;;;;;7.13;4.03;;;;;;;11.04;72.77;96799.06;4935394;29;20530;-78
2022/12/26 09:28:42;;;;;;;7.25;5.00;;;;;;;11.02;72.49;96795.81;4935595;29;20052;-77
2022/12/26 09:31:12;;;;;;;6.03;4.05;;;;;;;11.02;73.37;96806.25;4935896;29;20048;-78
2022/12/26 09:33:40;;;;;;;6.07;4.10;;;;;;;11.03;72.94;96807.88;4935861;29;20110;-77
2022/12/26 09:36:10;;;;;;;6.38;4.55;;;;;;;11.02;72.49;96810.66;4935380;29;20494;-77
2022/12/26 09:38:42;;;;;;;6.35;4.80;;;;;;;11.01;73.01;96825.50;4938585;29;20585;-78
2022/12/26 09:41:30;;;;;;;5.13;4.43;;;;;;;11.03;73.61;96820.13;4939750;29;20083;-78
2022/12/26 09:44:05;;;;;;;6.28;4.53;;;;;;;11.02;72.58;96815.88;4939622;29;20056;-77
2022/12/26 09:46:40;;;;;;;6.95;5.10;;;;;;;11.01;73.72;96812.47;4939256;29;20052;-77
2022/12/26 09:49:11;;;;;;;5.60;4.82;;;;;;;11.04;73.14;96819.94;4949038;29;20052;-77
2022/12/26 09:51:41;;;;;;;5.95;4.75;;;;;;;11.03;72.63;96818.31;4955456;29;20051;-78
2022/12/26 09:54:18;;;;;;;6.10;4.97;;;;;;;11.05;73.01;96810.31;4952392;29;20082;-78
2022/12/26 09:56:48;;;;;;;7.07;5.13;;;;;;;11.04;73.29;96817.34;4939311;29;20055;-78
2022/12/26 09:59:45;;;;;;;6.22;5.22;;;;;;;11.05;74.38;96823.38;4938969;29;20063;-78
2022/12/26 10:02:18;;;;;;;6.53;4.70;;;;;;;11.06;74.81;96822.34;4938536;29;20051;-78
2022/12/26 10:04:45;;;;;;;;;;;;;;;11.08;74.13;96823.78;4939001;29;20509;-78
2022/12/26 10:07:20;;;;;;;6.25;5.32;;;;;;;11.08;74.08;96826.41;4938401;29;19929;-78
2022/12/26 10:09:56;;;;;;;6.50;5.43;;;;;;;11.08;74.14;96826.41;4938062;29;20051;-78
2022/12/26 10:12:37;;;;;;;7.22;5.57;;;;;;;11.07;73.88;96819.56;4938963;29;20055;-77
2022/12/26 10:15:24;;;;;;;9.80;7.22;;;;;;;11.06;73.35;96838.84;4938203;29;20059;-78
2022/12/26 10:17:59;;;;;;;11.00;7.93;;;;;;;11.06;72.92;96838.84;4938392;29;20065;-77
2022/12/26 10:20:33;;;;;;;9.25;6.50;;;;;;;11.05;72.72;96842.44;4938995;29;20070;-78
2022/12/26 10:23:18;;;;;;;8.35;6.03;;;;;;;11.06;73.70;96849.28;4938848;29;20059;-78
2022/12/26 10:25:49;;;;;;;9.23;5.45;;;;;;;11.08;73.33;96854.31;4938250;29;20051;-78
2022/12/26 10:28:30;;;;;;;8.75;5.40;;;;;;;11.12;75.24;96869.44;4938314;29;20092;-78
2022/12/26 10:31:02;;;;;;;6.47;5.00;;;;;;;11.13;74.14;96867.66;4938134;29;20147;-78
2022/12/26 10:33:36;;;;;;;6.13;5.07;;;;;;;11.16;75.03;96874.31;4941242;29;20429;-78
2022/12/26 10:36:04;;;;;;;7.90;6.68;;;;;;;11.17;74.77;96886.38;4946764;29;20055;-78
2022/12/26 10:38:37;;;;;;;8.23;6.60;;;;;;;11.16;75.36;96895.22;4945139;29;20052;-78
2022/12/26 10:41:09;;;;;;;8.23;6.10;;;;;;;11.14;75.05;96893.56;4938852;29;20055;-77
2022/12/26 10:43:43;;;;;;;7.50;5.65;;;;;;;11.13;75.42;96907.63;4937987;29;20052;-78
2022/12/26 10:46:27;;;;;;;5.85;5.18;;;;;;;11.11;75.66;96921.84;4954295;29;20035;-78
2022/12/26 10:48:55;;;;;;;5.60;4.95;;;;;;;11.07;75.31;96912.75;4959725;29;20032;-77
2022/12/26 10:51:24;;;;;;;5.72;4.60;;;;;;;11.05;75.54;96919.94;4953470;29;20132;-78
2022/12/26 10:53:53;;;;;;;6.10;4.45;;;;;;;10.99;75.80;96920.66;4938957;29;20495;-78
2022/12/26 10:56:25;;;;;;;5.75;4.28;;;;;;;10.95;75.80;96917.56;4938483;29;20055;-78
2022/12/26 10:59:00;;;;;;;6.05;4.13;;;;;;;10.92;76.27;96931.78;4937620;29;20557;-78
2022/12/26 11:01:33;;;;;;;4.50;4.00;;;;;;;10.90;76.41;96931.16;4938418;29;20668;-77
2022/12/26 11:04:03;;;;;;;5.32;4.38;;;;;;;10.91;76.83;96930.19;4944034;29;20071;-77
2022/12/26 11:06:33;;;;;;;5.65;3.83;;;;;;;10.89;76.33;96934.75;4959421;29;20051;-77
2022/12/26 11:09:01;;;;;;;5.75;3.55;;;;;;;10.92;76.61;96936.19;4958192;29;20116;-78
2022/12/26 11:11:44;;;;;;;5.00;3.10;;;;;;;10.91;76.86;96935.41;4939433;29;20078;-78
2022/12/26 11:14:29;;;;;;;2.92;2.63;;;;;;;10.92;77.65;96933.59;4937676;29;20066;-77
2022/12/26 11:17:03;;;;;;;2.70;2.33;;;;;;;10.92;76.42;96934.41;4937723;29;20052;-78
2022/12/26 11:19:33;;;;;;;2.25;1.83;;;;;;;10.91;76.03;96948.44;4937136;29;20056;-78
2022/12/26 11:22:21;;;;;;;2.45;2.13;;;;;;;10.91;76.17;96940.63;4936935;29;20086;-77
2022/12/26 11:25:16;;;;;;;2.92;2.08;;;;;;;10.94;77.26;96942.06;4937071;29;20059;-78
2022/12/26 11:27:45;;;;;;;2.15;1.80;;;;;;;10.92;76.19;96946.63;4934201;29;20055;-78
2022/12/26 11:30:33;;;;;;;1.88;1.70;;;;;;;10.92;76.80;96942.22;4937260;29;20467;-78
2022/12/26 11:33:22;;;;;;;2.28;2.08;;;;;;;10.93;77.46;96943.88;4936626;29;20058;-78
2022/12/26 11:35:54;;;;;;;2.85;2.08;;;;;;;10.96;77.06;96937.47;4937330;29;20530;-78
2022/12/26 11:38:35;;;;;;;2.45;1.75;;;;;;;10.97;77.02;96927.84;4936440;29;20056;-78
2022/12/26 11:41:35;;;;;;;3.08;1.98;;;;;;;10.98;77.37;96924.25;4936869;29;20048;-77
2022/12/26 11:44:13;;;;;;;2.78;2.13;;;;;;;10.98;76.86;96919.84;4936438;29;20143;-78
2022/12/26 11:46:45;;;;;;;2.13;1.80;;;;;;;10.98;77.58;96925.06;4936743;29;20054;-78
2022/12/26 11:49:24;;;;;;;4.35;2.03;;;;;;;11.00;77.85;96912.66;4936870;29;20048;-78
2022/12/26 11:51:53;;;;;;;2.60;2.08;;;;;;;11.00;77.09;96904.00;4936627;29;20051;-78
2022/12/26 11:54:33;;;;;;;2.38;1.77;;;;;;;11.02;77.48;96899.41;4936875;29;20059;-78
2022/12/26 11:57:12;;;;;;;2.45;1.90;;;;;;;11.03;77.47;96895.81;4937498;29;20099;-78
2022/12/26 11:59:39;;;;;;;2.28;2.05;;;;;;;11.03;77.27;96886.19;4948421;29;20112;-78
2022/12/26 12:02:30;;;;;;;2.17;1.55;;;;;;;11.05;77.76;96868.53;4949775;29;20047;-78
2022/12/26 12:05:01;;;;;;;2.33;1.85;;;;;;;11.07;77.03;96855.31;4940316;29;20060;-78
2022/12/26 12:07:47;;;;;;;3.35;2.58;;;;;;;11.06;76.56;96857.13;4938459;29;20091;-78
2022/12/26 12:10:38;;;;;;;10.63;7.13;;;;;;;11.08;76.94;96872.59;4936896;29;20517;-78
2022/12/26 12:13:11;;;;;;;6.88;5.03;;;;;;;11.09;77.39;96900.34;4937249;29;20056;-78
2022/12/26 12:15:49;;;;;;;3.45;3.05;;;;;;;11.10;77.89;96902.75;4936615;29;20052;-78
2022/12/26 12:18:22;;;;;;;4.63;3.38;;;;;;;11.12;77.24;96910.41;4936619;29;20055;-78
2022/12/26 12:21:04;;;;;;;3.28;2.47;;;;;;;11.12;77.45;96894.75;4936615;29;20059;-80
2022/12/26 12:23:46;;;;;;;2.85;1.90;;;;;;;11.12;76.81;96889.53;4935481;29;20055;-80
2022/12/26 12:26:17;;;;;;;2.13;1.92;;;;;;;11.11;77.30;96877.47;4936175;29;20052;-80
2022/12/26 12:29:21;;;;;;;2.03;1.83;;;;;;;11.12;77.91;96879.88;4935807;29;20061;-81
2022/12/26 12:32:04;;;;;;;3.45;1.50;;;;;;;11.10;76.80;96902.75;4935460;29;20415;-80
2022/12/26 12:34:44;;;;;;;1.40;1.30;;;;;;;11.09;77.19;96893.31;4935167;29;20425;-80
2022/12/26 12:37:26;;;;;;;2.47;1.30;;;;;;;11.08;76.11;96873.41;4935054;29;20052;-81
2022/12/26 12:40:03;;;;;;;2.88;1.73;;;;;;;11.08;76.40;96883.03;4934840;29;20517;-80
2022/12/26 12:42:46;;;;;;;1.90;1.60;;;;;;;11.06;75.71;96870.19;4935236;29;20051;-80
2022/12/26 12:45:26;;;;;;;2.30;1.60;;;;;;;11.07;77.08;96884.03;4935216;29;20512;-80
2022/12/26 12:48:10;;;;;;;2.03;1.33;;;;;;;11.07;76.37;96887.44;4935607;29;20083;-78
2022/12/26 12:50:47;;;;;;;1.92;1.70;;;;;;;11.08;76.65;96870.78;4936101;29;20048;-77
2022/12/26 12:53:36;;;;;;;2.65;1.23;;;;;;;11.11;77.01;96882.69;4936127;29;20083;-78
2022/12/26 13:04:14;;;;;;;22.33;13.10;;;;;;;11.17;77.13;96875.94;5978173;23;20041;-79
2022/12/26 13:06:46;;;;;;;;;;;;;;;11.20;77.00;96883.44;4918906;29;20144;-79
2022/12/26 13:09:18;;;;;;;5.93;3.25;;;;;;;11.19;76.66;96887.00;4917355;29;19929;-79
2022/12/26 13:11:48;;;;;;;2.47;2.00;;;;;;;11.20;76.42;96896.50;4917597;29;20055;-79
2022/12/26 13:14:21;;;;;;;1.92;1.70;;;;;;;11.17;75.82;96876.75;4919166;29;20062;-79
2022/12/26 13:16:51;;;;;;;;;;;;;;;11.19;76.50;96879.97;4903191;29;20053;-79
2022/12/26 13:19:23;;;;;;;2.63;1.30;;;;;;;11.18;76.28;96877.56;4901664;29;19924;-79
2022/12/26 13:21:57;;;;;;;1.65;1.33;;;;;;;11.18;76.87;96878.38;4902748;29;20059;-79
2022/12/26 13:24:32;;;;;;;1.48;1.10;;;;;;;11.18;76.58;96885.41;4902303;29;20065;-79
2022/12/26 13:27:05;;;;;;;1.48;1.10;;;;;;;11.19;76.13;96879.19;4902429;29;20446;-79
2022/12/26 13:29:38;;;;;;;1.38;1.23;;;;;;;11.16;76.28;96875.13;4902156;29;20049;-79
2022/12/26 13:32:17;;;;;;;0.90;0.90;;;;;;;11.17;76.00;96875.94;4901338;29;20045;-78
2022/12/26 13:34:45;;;;;;;1.30;1.10;;;;;;;11.14;75.51;96888.34;4900677;29;20059;-78
2022/12/26 13:37:54;;;;;;;2.28;1.15;;;;;;;11.12;74.91;96895.56;4911555;29;20049;-79
2022/12/26 13:40:25;;;;;;;1.00;0.70;;;;;;;11.11;75.56;96887.91;4917450;29;20143;-78
2022/12/26 13:45:52;;;;;;;1.20;1.00;;;;;;;11.09;75.55;96885.47;4903573;29;20063;-79
2022/12/26 13:49:06;;;;;;;0.52;0.50;;;;;;;11.09;75.48;96875.03;4902387;29;20075;-79
2022/12/26 13:52:00;;;;;;;0.30;0.30;;;;;;;11.06;74.37;96875.41;4902165;29;20059;-79
2022/12/26 13:54:29;;;;;;;;;;;;;;;11.08;74.57;96888.25;4902195;29;20067;-79
2022/12/26 13:57:34;;;;;;;2.15;0.80;;;;;;;11.06;74.91;96878.00;4900853;29;19924;-79
2022/12/26 14:00:09;;;;;;;0.50;0.32;;;;;;;11.04;73.71;96877.38;4900900;29;20079;-78
2022/12/26 14:02:58;;;;;;;0.75;0.43;;;;;;;11.05;74.49;96860.72;4900743;29;20052;-79
2022/12/26 14:05:58;;;;;;;0.50;0.50;;;;;;;11.06;73.71;96858.91;4901963;29;20045;-79
2022/12/26 14:08:36;;;;;;;0.30;0.28;;;;;;;11.05;72.87;96855.50;4901175;29;20052;-79
2022/12/26 14:11:27;;;;;;;0.80;0.57;;;;;;;11.05;72.64;96875.56;4900622;29;20467;-79
2022/12/26 14:14:08;;;;;;;0.63;0.50;;;;;;;11.05;72.14;96876.38;4900270;29;20049;-79
2022/12/26 14:16:46;;;;;;;0.60;0.60;;;;;;;11.05;73.40;96871.16;4900387;29;20059;-79
2022/12/26 14:19:29;;;;;;;0.55;0.38;;;;;;;11.04;72.11;96866.94;4899878;29;20057;-79
2022/12/26 14:21:59;;;;;;;;;;;;;;;11.06;72.56;96857.13;4900968;29;20149;-78
2022/12/26 14:24:41;;;;;;;0.40;0.40;;;;;;;11.05;72.44;96862.53;4899500;29;20382;-78
2022/12/26 14:27:30;;;;;;;0.82;0.70;;;;;;;11.07;73.10;96860.53;4900409;29;20436;-79
2022/12/26 14:30:06;;;;;;;0.70;0.30;;;;;;;11.07;71.72;96855.31;4900022;29;20515;-79
2022/12/26 14:32:42;;;;;;;0.32;0.32;;;;;;;11.05;71.99;96859.91;4899972;29;20059;-79
2022/12/26 14:35:23;;;;;;;0.32;0.32;;;;;;;11.06;72.93;96874.56;4901437;29;20048;-79
2022/12/26 14:38:05;;;;;;;0.60;0.30;;;;;;;11.05;72.05;96878.19;4921949;29;20053;-78
2022/12/26 14:40:36;;;;;;;1.02;0.30;;;;;;;11.06;71.98;96882.41;4921967;29;20169;-79